sensor_id;sensor_type;location;lat;lon;timestamp;P1;durP1;ratioP1;P2;durP2;ratioP2
20982;SDS011;10650;51.528;6.748;2022-08-21T00:01:53;6.82;;;5.10;;
20982;SDS011;10650;51.528;6.748;2022-08-21T00:04:22;8.98;;;5.57;;
20982;SDS011;10650;51.528;6.748;2022-08-21T00:06:55;8.65;;;5.38;;
20982;SDS011;10650;51.528;6.748;2022-08-21T00:09:23;8.50;;;5.40;;
20982;SDS011;10650;51.528;6.748;2022-08-21T00:11:51;7.55;;;4.65;;
20982;SDS011;10650;51.528;6.748;2022-08-21T00:14:19;8.05;;;4.90;;
20982;SDS011;10650;51.528;6.748;2022-08-21T00:16:47;7.03;;;5.45;;
20982;SDS011;10650;51.528;6.748;2022-08-21T00:19:17;9.88;;;5.50;;
20982;SDS011;10650;51.528;6.748;2022-08-21T00:21:46;8.63;;;5.78;;
20982;SDS011;10650;51.528;6.748;2022-08-21T00:24:17;9.10;;;6.20;;
20982;SDS011;10650;51.528;6.748;2022-08-21T00:26:45;8.57;;;6.35;;
20982;SDS011;10650;51.528;6.748;2022-08-21T00:29:14;8.32;;;6.13;;
20982;SDS011;10650;51.528;6.748;2022-08-21T00:31:43;6.32;;;5.68;;
20982;SDS011;10650;51.528;6.748;2022-08-21T00:34:12;9.18;;;5.70;;
20982;SDS011;10650;51.528;6.748;2022-08-21T00:36:42;8.77;;;6.50;;
20982;SDS011;10650;51.528;6.748;2022-08-21T00:39:09;8.73;;;6.53;;
20982;SDS011;10650;51.528;6.748;2022-08-21T00:41:38;9.75;;;6.13;;
20982;SDS011;10650;51.528;6.748;2022-08-21T00:44:09;8.50;;;5.82;;
20982;SDS011;10650;51.528;6.748;2022-08-21T00:46:41;11.60;;;6.55;;
20982;SDS011;10650;51.528;6.748;2022-08-21T00:49:10;12.50;;;6.75;;
20982;SDS011;10650;51.528;6.748;2022-08-21T00:51:40;6.93;;;5.68;;
20982;SDS011;10650;51.528;6.748;2022-08-21T00:54:14;6.20;;;5.57;;
20982;SDS011;10650;51.528;6.748;2022-08-21T00:56:45;8.02;;;6.25;;
20982;SDS011;10650;51.528;6.748;2022-08-21T00:59:16;7.30;;;4.90;;
20982;SDS011;10650;51.528;6.748;2022-08-21T01:01:45;7.18;;;5.18;;
20982;SDS011;10650;51.528;6.748;2022-08-21T01:04:13;7.38;;;5.50;;
20982;SDS011;10650;51.528;6.748;2022-08-21T01:06:43;8.10;;;6.70;;
20982;SDS011;10650;51.528;6.748;2022-08-21T01:09:12;9.05;;;6.40;;
20982;SDS011;10650;51.528;6.748;2022-08-21T01:11:41;6.00;;;5.28;;
20982;SDS011;10650;51.528;6.748;2022-08-21T01:14:10;7.70;;;5.30;;
20982;SDS011;10650;51.528;6.748;2022-08-21T01:16:39;9.48;;;6.70;;
20982;SDS011;10650;51.528;6.748;2022-08-21T01:19:10;11.18;;;6.90;;
20982;SDS011;10650;51.528;6.748;2022-08-21T01:21:40;7.43;;;5.03;;
20982;SDS011;10650;51.528;6.748;2022-08-21T01:24:09;7.45;;;5.60;;
20982;SDS011;10650;51.528;6.748;2022-08-21T01:26:38;7.25;;;5.45;;
20982;SDS011;10650;51.528;6.748;2022-08-21T01:29:09;13.25;;;7.30;;
20982;SDS011;10650;51.528;6.748;2022-08-21T01:31:42;9.75;;;6.80;;
20982;SDS011;10650;51.528;6.748;2022-08-21T01:34:10;12.05;;;7.95;;
20982;SDS011;10650;51.528;6.748;2022-08-21T01:36:39;8.60;;;6.50;;
20982;SDS011;10650;51.528;6.748;2022-08-21T01:39:08;8.65;;;6.50;;
20982;SDS011;10650;51.528;6.748;2022-08-21T01:41:36;9.65;;;6.50;;
20982;SDS011;10650;51.528;6.748;2022-08-21T01:44:04;10.32;;;7.20;;
20982;SDS011;10650;51.528;6.748;2022-08-21T01:46:31;10.32;;;6.50;;
20982;SDS011;10650;51.528;6.748;2022-08-21T01:48:59;7.93;;;5.72;;
20982;SDS011;10650;51.528;6.748;2022-08-21T01:51:27;11.60;;;6.68;;
20982;SDS011;10650;51.528;6.748;2022-08-21T01:53:56;10.13;;;6.45;;
20982;SDS011;10650;51.528;6.748;2022-08-21T01:56:24;11.32;;;6.40;;
20982;SDS011;10650;51.528;6.748;2022-08-21T01:58:54;8.02;;;6.80;;
20982;SDS011;10650;51.528;6.748;2022-08-21T02:01:21;8.80;;;6.22;;
20982;SDS011;10650;51.528;6.748;2022-08-21T02:03:50;8.30;;;6.50;;
20982;SDS011;10650;51.528;6.748;2022-08-21T02:06:18;7.63;;;6.78;;
20982;SDS011;10650;51.528;6.748;2022-08-21T02:08:46;9.30;;;6.40;;
20982;SDS011;10650;51.528;6.748;2022-08-21T02:11:18;13.43;;;8.77;;
20982;SDS011;10650;51.528;6.748;2022-08-21T02:13:46;9.95;;;7.78;;
20982;SDS011;10650;51.528;6.748;2022-08-21T02:16:14;9.60;;;6.75;;
20982;SDS011;10650;51.528;6.748;2022-08-21T02:18:44;8.20;;;7.32;;
20982;SDS011;10650;51.528;6.748;2022-08-21T02:21:13;8.82;;;5.95;;
20982;SDS011;10650;51.528;6.748;2022-08-21T02:23:40;7.85;;;6.25;;
20982;SDS011;10650;51.528;6.748;2022-08-21T02:26:08;8.98;;;6.90;;
20982;SDS011;10650;51.528;6.748;2022-08-21T02:28:38;8.60;;;5.90;;
20982;SDS011;10650;51.528;6.748;2022-08-21T02:31:06;10.52;;;7.35;;
20982;SDS011;10650;51.528;6.748;2022-08-21T02:33:34;8.45;;;5.95;;
20982;SDS011;10650;51.528;6.748;2022-08-21T02:36:02;7.43;;;6.28;;
20982;SDS011;10650;51.528;6.748;2022-08-21T02:38:32;9.52;;;7.80;;
20982;SDS011;10650;51.528;6.748;2022-08-21T02:41:04;9.45;;;7.07;;
20982;SDS011;10650;51.528;6.748;2022-08-21T02:43:33;13.07;;;8.43;;
20982;SDS011;10650;51.528;6.748;2022-08-21T02:46:04;12.32;;;8.27;;
20982;SDS011;10650;51.528;6.748;2022-08-21T02:48:33;10.48;;;7.50;;
20982;SDS011;10650;51.528;6.748;2022-08-21T02:51:02;7.70;;;6.20;;
20982;SDS011;10650;51.528;6.748;2022-08-21T02:53:32;14.02;;;8.65;;
20982;SDS011;10650;51.528;6.748;2022-08-21T02:56:00;10.75;;;7.38;;
20982;SDS011;10650;51.528;6.748;2022-08-21T02:58:32;10.48;;;7.45;;
20982;SDS011;10650;51.528;6.748;2022-08-21T03:01:01;12.80;;;8.35;;
20982;SDS011;10650;51.528;6.748;2022-08-21T03:03:31;10.82;;;8.32;;
20982;SDS011;10650;51.528;6.748;2022-08-21T03:06:02;7.75;;;6.47;;
20982;SDS011;10650;51.528;6.748;2022-08-21T03:08:30;10.98;;;7.68;;
20982;SDS011;10650;51.528;6.748;2022-08-21T03:10:58;11.15;;;7.72;;
20982;SDS011;10650;51.528;6.748;2022-08-21T03:13:27;11.20;;;7.97;;
20982;SDS011;10650;51.528;6.748;2022-08-21T03:15:55;9.55;;;6.22;;
20982;SDS011;10650;51.528;6.748;2022-08-21T03:18:23;8.23;;;6.25;;
20982;SDS011;10650;51.528;6.748;2022-08-21T03:20:52;7.95;;;5.85;;
20982;SDS011;10650;51.528;6.748;2022-08-21T03:23:20;10.43;;;6.97;;
20982;SDS011;10650;51.528;6.748;2022-08-21T03:25:48;9.85;;;6.85;;
20982;SDS011;10650;51.528;6.748;2022-08-21T03:28:20;9.68;;;7.05;;
20982;SDS011;10650;51.528;6.748;2022-08-21T03:30:50;9.23;;;6.28;;
20982;SDS011;10650;51.528;6.748;2022-08-21T03:33:19;10.35;;;8.13;;
20982;SDS011;10650;51.528;6.748;2022-08-21T03:35:52;12.57;;;7.97;;
20982;SDS011;10650;51.528;6.748;2022-08-21T03:38:27;9.52;;;6.30;;
20982;SDS011;10650;51.528;6.748;2022-08-21T03:40:56;7.78;;;6.97;;
20982;SDS011;10650;51.528;6.748;2022-08-21T03:43:24;7.95;;;6.30;;
20982;SDS011;10650;51.528;6.748;2022-08-21T03:45:57;10.90;;;8.30;;
20982;SDS011;10650;51.528;6.748;2022-08-21T03:48:25;8.77;;;6.80;;
20982;SDS011;10650;51.528;6.748;2022-08-21T03:50:53;8.80;;;6.00;;
20982;SDS011;10650;51.528;6.748;2022-08-21T03:53:23;8.20;;;5.55;;
20982;SDS011;10650;51.528;6.748;2022-08-21T03:55:51;8.55;;;6.93;;
20982;SDS011;10650;51.528;6.748;2022-08-21T03:58:21;11.68;;;8.35;;
20982;SDS011;10650;51.528;6.748;2022-08-21T04:00:51;9.50;;;7.90;;
20982;SDS011;10650;51.528;6.748;2022-08-21T04:03:23;11.55;;;7.13;;
20982;SDS011;10650;51.528;6.748;2022-08-21T04:05:51;8.02;;;6.38;;
20982;SDS011;10650;51.528;6.748;2022-08-21T04:08:19;8.43;;;6.68;;
20982;SDS011;10650;51.528;6.748;2022-08-21T04:10:49;10.05;;;7.22;;
20982;SDS011;10650;51.528;6.748;2022-08-21T04:13:19;6.72;;;5.78;;
20982;SDS011;10650;51.528;6.748;2022-08-21T04:15:48;9.75;;;7.25;;
20982;SDS011;10650;51.528;6.748;2022-08-21T04:18:16;10.60;;;6.13;;
20982;SDS011;10650;51.528;6.748;2022-08-21T04:20:44;11.88;;;8.25;;
20982;SDS011;10650;51.528;6.748;2022-08-21T04:23:16;9.80;;;8.33;;
20982;SDS011;10650;51.528;6.748;2022-08-21T04:25:51;9.35;;;7.85;;
20982;SDS011;10650;51.528;6.748;2022-08-21T04:28:22;14.38;;;9.00;;
20982;SDS011;10650;51.528;6.748;2022-08-21T04:30:55;11.52;;;8.50;;
20982;SDS011;10650;51.528;6.748;2022-08-21T04:33:23;15.35;;;11.57;;
20982;SDS011;10650;51.528;6.748;2022-08-21T04:35:51;9.15;;;8.13;;
20982;SDS011;10650;51.528;6.748;2022-08-21T04:38:19;7.90;;;6.82;;
20982;SDS011;10650;51.528;6.748;2022-08-21T04:40:48;9.57;;;7.10;;
20982;SDS011;10650;51.528;6.748;2022-08-21T04:43:18;7.97;;;7.15;;
20982;SDS011;10650;51.528;6.748;2022-08-21T04:45:48;13.55;;;9.07;;
20982;SDS011;10650;51.528;6.748;2022-08-21T04:48:17;10.35;;;7.53;;
20982;SDS011;10650;51.528;6.748;2022-08-21T04:50:47;8.82;;;7.28;;
20982;SDS011;10650;51.528;6.748;2022-08-21T04:53:20;11.13;;;8.63;;
20982;SDS011;10650;51.528;6.748;2022-08-21T04:55:52;9.25;;;7.22;;
20982;SDS011;10650;51.528;6.748;2022-08-21T04:58:23;13.25;;;9.43;;
20982;SDS011;10650;51.528;6.748;2022-08-21T05:00:54;10.40;;;7.85;;
20982;SDS011;10650;51.528;6.748;2022-08-21T05:03:23;11.23;;;7.68;;
20982;SDS011;10650;51.528;6.748;2022-08-21T05:05:51;11.60;;;8.57;;
20982;SDS011;10650;51.528;6.748;2022-08-21T05:08:20;13.75;;;9.15;;
20982;SDS011;10650;51.528;6.748;2022-08-21T05:10:51;10.02;;;7.82;;
20982;SDS011;10650;51.528;6.748;2022-08-21T05:13:26;11.00;;;7.70;;
20982;SDS011;10650;51.528;6.748;2022-08-21T05:15:55;10.55;;;8.27;;
20982;SDS011;10650;51.528;6.748;2022-08-21T05:18:23;10.32;;;7.75;;
20982;SDS011;10650;51.528;6.748;2022-08-21T05:20:50;9.93;;;8.40;;
20982;SDS011;10650;51.528;6.748;2022-08-21T05:23:18;10.75;;;7.82;;
20982;SDS011;10650;51.528;6.748;2022-08-21T05:25:46;8.82;;;7.70;;
20982;SDS011;10650;51.528;6.748;2022-08-21T05:28:14;13.25;;;8.10;;
20982;SDS011;10650;51.528;6.748;2022-08-21T05:30:43;8.73;;;7.82;;
20982;SDS011;10650;51.528;6.748;2022-08-21T05:33:11;12.82;;;9.20;;
20982;SDS011;10650;51.528;6.748;2022-08-21T05:35:39;15.88;;;10.68;;
20982;SDS011;10650;51.528;6.748;2022-08-21T05:38:07;9.70;;;8.48;;
20982;SDS011;10650;51.528;6.748;2022-08-21T05:40:43;15.20;;;11.50;;
20982;SDS011;10650;51.528;6.748;2022-08-21T05:43:10;11.32;;;9.55;;
20982;SDS011;10650;51.528;6.748;2022-08-21T05:45:38;15.13;;;12.02;;
20982;SDS011;10650;51.528;6.748;2022-08-21T05:48:12;17.35;;;11.77;;
20982;SDS011;10650;51.528;6.748;2022-08-21T05:50:42;18.10;;;11.05;;
20982;SDS011;10650;51.528;6.748;2022-08-21T05:53:12;18.88;;;11.27;;
20982;SDS011;10650;51.528;6.748;2022-08-21T05:55:41;22.45;;;11.27;;
20982;SDS011;10650;51.528;6.748;2022-08-21T05:58:12;18.77;;;10.70;;
20982;SDS011;10650;51.528;6.748;2022-08-21T06:00:41;18.38;;;11.25;;
20982;SDS011;10650;51.528;6.748;2022-08-21T06:03:12;21.75;;;11.05;;
20982;SDS011;10650;51.528;6.748;2022-08-21T06:05:41;17.48;;;10.23;;
20982;SDS011;10650;51.528;6.748;2022-08-21T06:08:09;19.45;;;9.93;;
20982;SDS011;10650;51.528;6.748;2022-08-21T06:10:37;13.80;;;9.20;;
20982;SDS011;10650;51.528;6.748;2022-08-21T06:13:05;14.10;;;10.05;;
20982;SDS011;10650;51.528;6.748;2022-08-21T06:15:32;15.13;;;10.10;;
20982;SDS011;10650;51.528;6.748;2022-08-21T06:18:00;13.02;;;9.02;;
20982;SDS011;10650;51.528;6.748;2022-08-21T06:20:29;15.80;;;9.38;;
20982;SDS011;10650;51.528;6.748;2022-08-21T06:22:57;13.85;;;8.82;;
20982;SDS011;10650;51.528;6.748;2022-08-21T06:25:26;15.60;;;8.98;;
20982;SDS011;10650;51.528;6.748;2022-08-21T06:27:59;12.98;;;8.52;;
20982;SDS011;10650;51.528;6.748;2022-08-21T06:30:28;22.25;;;8.30;;
20982;SDS011;10650;51.528;6.748;2022-08-21T06:32:56;15.30;;;8.50;;
20982;SDS011;10650;51.528;6.748;2022-08-21T06:35:24;19.83;;;7.68;;
20982;SDS011;10650;51.528;6.748;2022-08-21T06:37:53;12.48;;;8.05;;
20982;SDS011;10650;51.528;6.748;2022-08-21T06:40:21;14.05;;;7.80;;
20982;SDS011;10650;51.528;6.748;2022-08-21T06:42:50;13.88;;;7.43;;
20982;SDS011;10650;51.528;6.748;2022-08-21T06:45:18;13.75;;;6.70;;
20982;SDS011;10650;51.528;6.748;2022-08-21T06:47:46;12.90;;;6.80;;
20982;SDS011;10650;51.528;6.748;2022-08-21T06:50:14;14.88;;;7.18;;
20982;SDS011;10650;51.528;6.748;2022-08-21T06:52:42;12.68;;;6.68;;
20982;SDS011;10650;51.528;6.748;2022-08-21T06:55:11;9.00;;;5.97;;
20982;SDS011;10650;51.528;6.748;2022-08-21T06:57:47;10.15;;;5.82;;
20982;SDS011;10650;51.528;6.748;2022-08-21T07:00:18;10.23;;;5.60;;
20982;SDS011;10650;51.528;6.748;2022-08-21T07:02:46;8.75;;;5.65;;
20982;SDS011;10650;51.528;6.748;2022-08-21T07:05:15;10.63;;;5.20;;
20982;SDS011;10650;51.528;6.748;2022-08-21T07:07:44;9.25;;;5.57;;
20982;SDS011;10650;51.528;6.748;2022-08-21T07:10:13;8.55;;;4.90;;
20982;SDS011;10650;51.528;6.748;2022-08-21T07:12:48;12.43;;;5.32;;
20982;SDS011;10650;51.528;6.748;2022-08-21T07:15:26;9.32;;;5.20;;
20982;SDS011;10650;51.528;6.748;2022-08-21T07:17:55;8.90;;;5.00;;
20982;SDS011;10650;51.528;6.748;2022-08-21T07:20:24;10.50;;;5.20;;
20982;SDS011;10650;51.528;6.748;2022-08-21T07:22:52;8.65;;;4.88;;
20982;SDS011;10650;51.528;6.748;2022-08-21T07:25:22;13.48;;;7.45;;
20982;SDS011;10650;51.528;6.748;2022-08-21T07:27:50;12.38;;;6.55;;
20982;SDS011;10650;51.528;6.748;2022-08-21T07:30:18;8.80;;;4.70;;
20982;SDS011;10650;51.528;6.748;2022-08-21T07:32:46;7.70;;;4.20;;
20982;SDS011;10650;51.528;6.748;2022-08-21T07:35:15;9.43;;;4.85;;
20982;SDS011;10650;51.528;6.748;2022-08-21T07:37:43;7.53;;;4.45;;
20982;SDS011;10650;51.528;6.748;2022-08-21T07:40:11;9.05;;;4.18;;
20982;SDS011;10650;51.528;6.748;2022-08-21T07:42:41;8.10;;;3.92;;
20982;SDS011;10650;51.528;6.748;2022-08-21T07:45:10;7.85;;;4.30;;
20982;SDS011;10650;51.528;6.748;2022-08-21T07:47:39;9.00;;;4.15;;
20982;SDS011;10650;51.528;6.748;2022-08-21T07:50:08;8.07;;;3.55;;
20982;SDS011;10650;51.528;6.748;2022-08-21T07:52:39;10.27;;;6.55;;
20982;SDS011;10650;51.528;6.748;2022-08-21T07:55:08;6.72;;;3.70;;
20982;SDS011;10650;51.528;6.748;2022-08-21T07:57:38;8.02;;;3.47;;
20982;SDS011;10650;51.528;6.748;2022-08-21T08:00:10;7.90;;;3.10;;
20982;SDS011;10650;51.528;6.748;2022-08-21T08:02:40;7.78;;;2.88;;
20982;SDS011;10650;51.528;6.748;2022-08-21T08:05:11;7.88;;;3.38;;
20982;SDS011;10650;51.528;6.748;2022-08-21T08:07:39;6.53;;;2.72;;
20982;SDS011;10650;51.528;6.748;2022-08-21T08:10:07;6.50;;;2.80;;
20982;SDS011;10650;51.528;6.748;2022-08-21T08:12:37;5.78;;;2.60;;
20982;SDS011;10650;51.528;6.748;2022-08-21T08:15:09;5.60;;;2.88;;
20982;SDS011;10650;51.528;6.748;2022-08-21T08:17:38;9.02;;;2.85;;
20982;SDS011;10650;51.528;6.748;2022-08-21T08:20:07;5.95;;;2.97;;
20982;SDS011;10650;51.528;6.748;2022-08-21T08:22:37;3.13;;;2.40;;
20982;SDS011;10650;51.528;6.748;2022-08-21T08:25:07;5.38;;;2.58;;
20982;SDS011;10650;51.528;6.748;2022-08-21T08:27:37;6.00;;;2.83;;
20982;SDS011;10650;51.528;6.748;2022-08-21T08:30:06;4.78;;;2.47;;
20982;SDS011;10650;51.528;6.748;2022-08-21T08:32:37;6.53;;;3.22;;
20982;SDS011;10650;51.528;6.748;2022-08-21T08:35:06;4.90;;;2.05;;
20982;SDS011;10650;51.528;6.748;2022-08-21T08:37:35;6.43;;;2.42;;
20982;SDS011;10650;51.528;6.748;2022-08-21T08:42:37;5.50;;;2.40;;
20982;SDS011;10650;51.528;6.748;2022-08-21T08:45:06;6.55;;;2.50;;
20982;SDS011;10650;51.528;6.748;2022-08-21T08:47:39;6.65;;;3.15;;
20982;SDS011;10650;51.528;6.748;2022-08-21T08:50:11;4.50;;;2.30;;
20982;SDS011;10650;51.528;6.748;2022-08-21T08:52:45;4.07;;;2.08;;
20982;SDS011;10650;51.528;6.748;2022-08-21T08:55:17;6.78;;;2.45;;
20982;SDS011;10650;51.528;6.748;2022-08-21T08:57:52;4.75;;;2.33;;
20982;SDS011;10650;51.528;6.748;2022-08-21T09:00:23;5.30;;;2.10;;
20982;SDS011;10650;51.528;6.748;2022-08-21T09:02:51;3.60;;;2.08;;
20982;SDS011;10650;51.528;6.748;2022-08-21T09:05:23;6.75;;;2.35;;
20982;SDS011;10650;51.528;6.748;2022-08-21T09:08:02;6.72;;;2.50;;
20982;SDS011;10650;51.528;6.748;2022-08-21T09:10:46;5.60;;;2.50;;
20982;SDS011;10650;51.528;6.748;2022-08-21T09:13:24;5.13;;;2.47;;
20982;SDS011;10650;51.528;6.748;2022-08-21T09:16:05;3.77;;;2.23;;
20982;SDS011;10650;51.528;6.748;2022-08-21T09:18:51;6.07;;;2.40;;
20982;SDS011;10650;51.528;6.748;2022-08-21T09:21:30;5.35;;;2.30;;
20982;SDS011;10650;51.528;6.748;2022-08-21T09:24:17;5.75;;;1.98;;
20982;SDS011;10650;51.528;6.748;2022-08-21T09:26:54;6.38;;;2.20;;
20982;SDS011;10650;51.528;6.748;2022-08-21T09:29:30;5.85;;;2.10;;
20982;SDS011;10650;51.528;6.748;2022-08-21T09:32:01;6.00;;;2.05;;
20982;SDS011;10650;51.528;6.748;2022-08-21T09:34:31;7.35;;;2.38;;
20982;SDS011;10650;51.528;6.748;2022-08-21T09:36:59;4.22;;;2.05;;
20982;SDS011;10650;51.528;6.748;2022-08-21T09:39:28;5.18;;;2.00;;
20982;SDS011;10650;51.528;6.748;2022-08-21T09:42:07;4.50;;;2.08;;
20982;SDS011;10650;51.528;6.748;2022-08-21T09:44:36;4.95;;;1.98;;
20982;SDS011;10650;51.528;6.748;2022-08-21T09:47:10;4.13;;;2.03;;
20982;SDS011;10650;51.528;6.748;2022-08-21T09:49:39;6.90;;;2.90;;
20982;SDS011;10650;51.528;6.748;2022-08-21T09:52:14;5.75;;;2.20;;
20982;SDS011;10650;51.528;6.748;2022-08-21T09:54:45;5.18;;;2.55;;
20982;SDS011;10650;51.528;6.748;2022-08-21T09:57:14;4.93;;;2.55;;
20982;SDS011;10650;51.528;6.748;2022-08-21T10:00:17;5.57;;;2.60;;
20982;SDS011;10650;51.528;6.748;2022-08-21T10:02:52;5.85;;;2.80;;
20982;SDS011;10650;51.528;6.748;2022-08-21T10:05:21;4.43;;;2.10;;
20982;SDS011;10650;51.528;6.748;2022-08-21T10:07:52;6.50;;;2.75;;
20982;SDS011;10650;51.528;6.748;2022-08-21T10:10:21;4.20;;;2.17;;
20982;SDS011;10650;51.528;6.748;2022-08-21T10:12:53;5.05;;;2.00;;
20982;SDS011;10650;51.528;6.748;2022-08-21T10:15:33;5.78;;;2.38;;
20982;SDS011;10650;51.528;6.748;2022-08-21T10:18:11;3.75;;;2.10;;
20982;SDS011;10650;51.528;6.748;2022-08-21T10:20:47;4.03;;;2.30;;
20982;SDS011;10650;51.528;6.748;2022-08-21T10:23:28;4.85;;;2.63;;
20982;SDS011;10650;51.528;6.748;2022-08-21T10:26:05;5.72;;;3.13;;
20982;SDS011;10650;51.528;6.748;2022-08-21T10:28:45;5.25;;;2.30;;
20982;SDS011;10650;51.528;6.748;2022-08-21T10:31:21;5.82;;;2.45;;
20982;SDS011;10650;51.528;6.748;2022-08-21T10:34:04;5.18;;;2.50;;
20982;SDS011;10650;51.528;6.748;2022-08-21T10:36:44;5.18;;;2.15;;
20982;SDS011;10650;51.528;6.748;2022-08-21T10:39:16;5.88;;;2.53;;
20982;SDS011;10650;51.528;6.748;2022-08-21T10:42:08;5.13;;;2.30;;
20982;SDS011;10650;51.528;6.748;2022-08-21T10:45:02;4.40;;;2.15;;
20982;SDS011;10650;51.528;6.748;2022-08-21T10:47:40;5.68;;;2.10;;
20982;SDS011;10650;51.528;6.748;2022-08-21T10:50:17;5.85;;;2.40;;
20982;SDS011;10650;51.528;6.748;2022-08-21T10:53:05;5.95;;;2.50;;
20982;SDS011;10650;51.528;6.748;2022-08-21T10:55:43;3.20;;;1.90;;
20982;SDS011;10650;51.528;6.748;2022-08-21T10:58:18;4.40;;;1.92;;
20982;SDS011;10650;51.528;6.748;2022-08-21T11:00:53;4.72;;;2.17;;
20982;SDS011;10650;51.528;6.748;2022-08-21T11:03:33;5.93;;;2.20;;
20982;SDS011;10650;51.528;6.748;2022-08-21T11:06:05;4.35;;;1.88;;
20982;SDS011;10650;51.528;6.748;2022-08-21T11:08:39;4.57;;;1.65;;
20982;SDS011;10650;51.528;6.748;2022-08-21T11:11:13;5.00;;;1.80;;
20982;SDS011;10650;51.528;6.748;2022-08-21T11:13:48;3.60;;;1.67;;
20982;SDS011;10650;51.528;6.748;2022-08-21T11:16:23;5.05;;;1.48;;
20982;SDS011;10650;51.528;6.748;2022-08-21T11:19:00;5.68;;;1.95;;
20982;SDS011;10650;51.528;6.748;2022-08-21T11:21:37;4.10;;;1.90;;
20982;SDS011;10650;51.528;6.748;2022-08-21T11:24:15;3.58;;;1.83;;
20982;SDS011;10650;51.528;6.748;2022-08-21T11:26:52;4.22;;;1.67;;
20982;SDS011;10650;51.528;6.748;2022-08-21T11:29:30;2.72;;;1.60;;
20982;SDS011;10650;51.528;6.748;2022-08-21T11:32:04;4.05;;;1.70;;
20982;SDS011;10650;51.528;6.748;2022-08-21T11:34:52;2.08;;;1.58;;
20982;SDS011;10650;51.528;6.748;2022-08-21T11:37:31;3.15;;;1.42;;
20982;SDS011;10650;51.528;6.748;2022-08-21T11:40:12;2.67;;;1.40;;
20982;SDS011;10650;51.528;6.748;2022-08-21T11:42:55;3.90;;;1.55;;
20982;SDS011;10650;51.528;6.748;2022-08-21T11:45:36;1.52;;;1.30;;
20982;SDS011;10650;51.528;6.748;2022-08-21T11:48:12;2.83;;;1.52;;
20982;SDS011;10650;51.528;6.748;2022-08-21T11:50:48;2.45;;;1.52;;
20982;SDS011;10650;51.528;6.748;2022-08-21T11:53:21;4.43;;;1.70;;
20982;SDS011;10650;51.528;6.748;2022-08-21T11:55:57;4.22;;;1.52;;
20982;SDS011;10650;51.528;6.748;2022-08-21T11:58:30;3.10;;;1.40;;
20982;SDS011;10650;51.528;6.748;2022-08-21T12:01:03;4.25;;;1.60;;
20982;SDS011;10650;51.528;6.748;2022-08-21T12:03:35;3.80;;;1.70;;
20982;SDS011;10650;51.528;6.748;2022-08-21T12:06:09;5.35;;;1.50;;
20982;SDS011;10650;51.528;6.748;2022-08-21T12:08:40;2.30;;;1.45;;
20982;SDS011;10650;51.528;6.748;2022-08-21T12:11:24;3.58;;;1.60;;
20982;SDS011;10650;51.528;6.748;2022-08-21T12:13:59;4.15;;;1.65;;
20982;SDS011;10650;51.528;6.748;2022-08-21T12:16:39;3.55;;;1.75;;
20982;SDS011;10650;51.528;6.748;2022-08-21T12:19:09;5.47;;;1.50;;
20982;SDS011;10650;51.528;6.748;2022-08-21T12:21:47;3.53;;;1.60;;
20982;SDS011;10650;51.528;6.748;2022-08-21T12:24:20;4.93;;;1.70;;
20982;SDS011;10650;51.528;6.748;2022-08-21T12:27:12;3.95;;;1.90;;
20982;SDS011;10650;51.528;6.748;2022-08-21T12:29:48;2.47;;;1.48;;
20982;SDS011;10650;51.528;6.748;2022-08-21T12:32:23;3.88;;;1.60;;
20982;SDS011;10650;51.528;6.748;2022-08-21T12:34:54;4.53;;;1.50;;
20982;SDS011;10650;51.528;6.748;2022-08-21T12:37:30;3.47;;;1.60;;
20982;SDS011;10650;51.528;6.748;2022-08-21T12:40:11;4.30;;;1.70;;
20982;SDS011;10650;51.528;6.748;2022-08-21T12:42:48;4.30;;;1.55;;
20982;SDS011;10650;51.528;6.748;2022-08-21T12:45:28;4.35;;;1.83;;
20982;SDS011;10650;51.528;6.748;2022-08-21T12:47:59;4.97;;;1.90;;
20982;SDS011;10650;51.528;6.748;2022-08-21T12:50:35;3.92;;;1.70;;
20982;SDS011;10650;51.528;6.748;2022-08-21T12:53:12;4.70;;;3.13;;
20982;SDS011;10650;51.528;6.748;2022-08-21T12:55:51;3.50;;;2.10;;
20982;SDS011;10650;51.528;6.748;2022-08-21T12:58:21;3.95;;;1.67;;
20982;SDS011;10650;51.528;6.748;2022-08-21T13:00:52;3.47;;;1.42;;
20982;SDS011;10650;51.528;6.748;2022-08-21T13:05:50;3.42;;;1.58;;
20982;SDS011;10650;51.528;6.748;2022-08-21T13:08:20;3.97;;;1.70;;
20982;SDS011;10650;51.528;6.748;2022-08-21T13:10:56;2.97;;;1.55;;
20982;SDS011;10650;51.528;6.748;2022-08-21T13:13:40;4.05;;;1.75;;
20982;SDS011;10650;51.528;6.748;2022-08-21T13:16:18;5.47;;;1.77;;
20982;SDS011;10650;51.528;6.748;2022-08-21T13:18:55;4.32;;;1.85;;
20982;SDS011;10650;51.528;6.748;2022-08-21T13:21:27;4.43;;;2.97;;
20982;SDS011;10650;51.528;6.748;2022-08-21T13:27:17;3.42;;;1.52;;
20982;SDS011;10650;51.528;6.748;2022-08-21T13:29:47;3.78;;;1.77;;
20982;SDS011;10650;51.528;6.748;2022-08-21T13:32:21;3.15;;;1.67;;
20982;SDS011;10650;51.528;6.748;2022-08-21T13:34:51;3.83;;;1.80;;
20982;SDS011;10650;51.528;6.748;2022-08-21T13:37:19;3.15;;;1.60;;
20982;SDS011;10650;51.528;6.748;2022-08-21T13:39:51;3.65;;;1.50;;
20982;SDS011;10650;51.528;6.748;2022-08-21T13:42:21;4.05;;;1.90;;
20982;SDS011;10650;51.528;6.748;2022-08-21T13:44:51;4.95;;;1.90;;
20982;SDS011;10650;51.528;6.748;2022-08-21T13:47:20;3.75;;;1.60;;
20982;SDS011;10650;51.528;6.748;2022-08-21T13:49:49;4.40;;;1.70;;
20982;SDS011;10650;51.528;6.748;2022-08-21T13:52:25;3.03;;;1.30;;
20982;SDS011;10650;51.528;6.748;2022-08-21T13:54:54;4.15;;;1.52;;
20982;SDS011;10650;51.528;6.748;2022-08-21T13:57:26;3.50;;;1.58;;
20982;SDS011;10650;51.528;6.748;2022-08-21T14:00:12;3.75;;;2.63;;
20982;SDS011;10650;51.528;6.748;2022-08-21T14:02:44;4.30;;;2.92;;
20982;SDS011;10650;51.528;6.748;2022-08-21T14:05:19;10.45;;;4.93;;
20982;SDS011;10650;51.528;6.748;2022-08-21T14:10:19;4.28;;;2.00;;
20982;SDS011;10650;51.528;6.748;2022-08-21T14:12:52;3.25;;;1.85;;
20982;SDS011;10650;51.528;6.748;2022-08-21T14:15:26;3.42;;;1.88;;
20982;SDS011;10650;51.528;6.748;2022-08-21T14:18:05;3.50;;;1.80;;
20982;SDS011;10650;51.528;6.748;2022-08-21T14:20:36;3.63;;;1.77;;
20982;SDS011;10650;51.528;6.748;2022-08-21T14:23:04;5.32;;;1.80;;
20982;SDS011;10650;51.528;6.748;2022-08-21T14:25:36;4.57;;;1.80;;
20982;SDS011;10650;51.528;6.748;2022-08-21T14:28:14;5.05;;;2.83;;
20982;SDS011;10650;51.528;6.748;2022-08-21T14:30:52;4.18;;;2.10;;
20982;SDS011;10650;51.528;6.748;2022-08-21T14:33:25;5.35;;;2.10;;
20982;SDS011;10650;51.528;6.748;2022-08-21T14:35:54;4.00;;;2.00;;
20982;SDS011;10650;51.528;6.748;2022-08-21T14:38:24;3.33;;;1.83;;
20982;SDS011;10650;51.528;6.748;2022-08-21T14:40:55;3.65;;;1.73;;
20982;SDS011;10650;51.528;6.748;2022-08-21T14:43:27;3.70;;;1.83;;
20982;SDS011;10650;51.528;6.748;2022-08-21T14:45:55;3.83;;;1.67;;
20982;SDS011;10650;51.528;6.748;2022-08-21T14:48:23;6.45;;;1.88;;
20982;SDS011;10650;51.528;6.748;2022-08-21T14:50:51;3.88;;;1.52;;
20982;SDS011;10650;51.528;6.748;2022-08-21T14:53:25;4.63;;;1.80;;
20982;SDS011;10650;51.528;6.748;2022-08-21T14:55:53;3.28;;;1.77;;
20982;SDS011;10650;51.528;6.748;2022-08-21T14:58:35;4.07;;;1.73;;
20982;SDS011;10650;51.528;6.748;2022-08-21T15:01:05;2.72;;;1.70;;
20982;SDS011;10650;51.528;6.748;2022-08-21T15:03:35;3.75;;;1.70;;
20982;SDS011;10650;51.528;6.748;2022-08-21T15:06:04;6.68;;;3.47;;
20982;SDS011;10650;51.528;6.748;2022-08-21T15:08:33;3.40;;;2.05;;
20982;SDS011;10650;51.528;6.748;2022-08-21T15:11:01;3.15;;;1.90;;
20982;SDS011;10650;51.528;6.748;2022-08-21T15:13:45;4.93;;;1.90;;
20982;SDS011;10650;51.528;6.748;2022-08-21T15:16:13;3.47;;;1.60;;
20982;SDS011;10650;51.528;6.748;2022-08-21T15:18:41;5.85;;;3.08;;
20982;SDS011;10650;51.528;6.748;2022-08-21T15:21:09;5.50;;;3.63;;